Time;durP1;ratioP1;P1;durP2;ratioP2;P2;SDS_P1;SDS_P2;PMS_P1;PMS_P2;Temp;Humidity;BMP_temperature;BMP_pressure;BME280_temperature;BME280_humidity;BME280_pressure;Samples;Min_cycle;Max_cycle;Signal;HPM_P1;HPM_P2
2022/07/13 00:00:16;;;;;;;4.78;3.85;;;23.20;64.30;;;;;;9176550;19;20024;-68
2022/07/13 00:03:24;;;;;;;5.50;3.80;;;23.20;64.40;;;;;;9174302;19;20017;-67
2022/07/13 00:06:29;;;;;;;7.35;4.05;;;23.20;64.50;;;;;;9174521;19;20037;-68
2022/07/13 00:09:34;;;;;;;6.72;4.13;;;23.20;64.60;;;;;;9178294;19;20018;-67
2022/07/13 00:12:39;;;;;;;8.82;4.45;;;23.10;64.60;;;;;;9178282;19;20500;-67
2022/07/13 00:15:44;;;;;;;5.88;4.07;;;23.10;64.70;;;;;;9174547;19;20034;-67
2022/07/13 00:18:52;;;;;;;6.97;4.35;;;23.00;64.80;;;;;;9177236;19;20024;-67
2022/07/13 00:21:57;;;;;;;9.82;4.47;;;23.00;64.90;;;;;;9177104;19;20033;-67
2022/07/13 00:25:02;;;;;;;10.93;3.55;;;22.90;64.80;;;;;;9178356;19;20472;-67
2022/07/13 00:28:07;;;;;;;7.65;4.00;;;22.90;64.80;;;;;;9178727;19;20022;-67
2022/07/13 00:31:12;;;;;;;6.35;4.20;;;22.80;64.80;;;;;;9176803;19;20014;-66
2022/07/13 00:34:20;;;;;;;4.88;4.13;;;22.80;64.90;;;;;;9177813;19;20022;-67
2022/07/13 00:37:25;;;;;;;4.22;3.80;;;22.80;64.90;;;;;;9177119;19;20015;-67
2022/07/13 00:40:30;;;;;;;7.43;4.55;;;22.70;64.80;;;;;;9174816;19;20025;-68
2022/07/13 00:43:35;;;;;;;8.40;4.28;;;22.70;65.00;;;;;;9174726;19;20022;-69
2022/07/13 00:46:43;;;;;;;11.13;4.63;;;22.70;65.00;;;;;;9176302;19;20534;-68
2022/07/13 00:49:51;;;;;;;6.93;4.32;;;22.60;65.00;;;;;;9175732;19;20018;-67
2022/07/13 00:52:56;;;;;;;7.68;4.53;;;22.60;65.10;;;;;;9174016;19;20039;-67
2022/07/13 00:56:04;;;;;;;9.45;4.40;;;22.50;65.00;;;;;;9174950;19;20045;-67
2022/07/13 00:59:09;;;;;;;6.22;4.55;;;22.50;65.10;;;;;;9176638;19;20098;-67
2022/07/13 01:02:14;;;;;;;8.13;4.53;;;22.50;65.80;;;;;;9174061;19;20014;-66
2022/07/13 01:05:22;;;;;;;6.88;5.05;;;22.50;65.80;;;;;;9168693;19;20011;-69
2022/07/13 01:08:28;;;;;;;5.95;4.40;;;22.40;65.20;;;;;;9174798;19;20105;-68
2022/07/13 01:11:35;;;;;;;7.75;4.93;;;22.40;65.20;;;;;;9174743;19;20815;-67
2022/07/13 01:14:41;;;;;;;7.97;5.40;;;22.40;65.20;;;;;;9175090;19;20395;-67
2022/07/13 01:17:46;;;;;;;8.38;5.75;;;22.30;65.10;;;;;;9174528;19;20085;-66
2022/07/13 01:20:54;;;;;;;8.20;5.25;;;22.30;65.10;;;;;;9174190;19;20022;-67
2022/07/13 01:24:05;;;;;;;11.07;6.50;;;22.30;65.20;;;;;;9173102;19;20015;-67
2022/07/13 01:27:10;;;;;;;7.65;5.22;;;22.30;65.20;;;;;;9173588;19;20018;-67
2022/07/13 01:30:16;;;;;;;7.63;6.07;;;22.20;65.80;;;;;;9173511;19;20042;-67
2022/07/13 01:33:21;;;;;;;6.25;5.45;;;22.20;65.20;;;;;;9174336;19;20018;-67
2022/07/13 01:36:27;;;;;;;7.82;5.70;;;22.20;65.20;;;;;;9174921;19;20022;-66
2022/07/13 01:39:35;;;;;;;8.35;5.82;;;22.20;65.30;;;;;;9173235;19;20014;-67
2022/07/13 01:42:43;;;;;;;6.65;5.03;;;22.20;66.00;;;;;;9171756;19;20029;-67
2022/07/13 01:45:48;;;;;;;6.63;5.03;;;22.20;65.40;;;;;;9173083;19;20033;-67
2022/07/13 01:48:54;;;;;;;7.30;5.50;;;22.20;65.30;;;;;;9175313;19;20014;-67
2022/07/13 01:51:59;;;;;;;9.80;5.82;;;22.20;65.30;;;;;;9173316;19;20018;-67
2022/07/13 01:55:09;;;;;;;7.45;5.32;;;22.20;65.30;;;;;;9172388;19;20048;-68
2022/07/13 01:58:14;;;;;;;8.45;5.60;;;22.20;65.30;;;;;;9172160;19;20007;-67
2022/07/13 02:01:19;;;;;;;7.60;4.78;;;22.20;65.20;;;;;;9174946;19;20019;-67
2022/07/13 02:04:26;;;;;;;6.47;4.72;;;22.20;65.10;;;;;;9166243;19;20015;-68
2022/07/13 02:07:32;;;;;;;7.10;4.85;;;22.20;65.10;;;;;;9169776;19;20019;-67
2022/07/13 02:10:44;;;;;;;7.28;4.10;;;22.20;65.10;;;;;;9177747;19;20485;-67
2022/07/13 02:13:50;;;;;;;5.78;4.05;;;22.20;65.20;;;;;;9181618;19;20110;-67
2022/07/13 02:16:55;;;;;;;8.80;4.63;;;22.20;65.10;;;;;;9181158;19;20018;-66
2022/07/13 02:20:01;;;;;;;7.53;4.40;;;22.20;65.10;;;;;;9181353;19;20022;-67
2022/07/13 02:23:07;;;;;;;10.50;4.40;;;22.20;65.00;;;;;;9181677;19;20018;-66
2022/07/13 02:26:14;;;;;;;8.13;4.45;;;22.20;65.00;;;;;;9182162;19;20006;-68
2022/07/13 02:29:19;;;;;;;5.00;3.97;;;22.10;65.00;;;;;;9181049;19;20017;-66
2022/07/13 02:32:25;;;;;;;5.03;3.85;;;22.10;65.00;;;;;;9182617;19;20494;-68
2022/07/13 02:35:30;;;;;;;6.13;4.32;;;22.10;65.00;;;;;;9181576;19;20030;-67
2022/07/13 02:38:41;;;;;;;7.40;4.80;;;22.10;65.00;;;;;;9180389;19;20017;-67
2022/07/13 02:41:52;;;;;;;12.65;4.35;;;22.10;65.10;;;;;;9180414;19;20015;-66
2022/07/13 02:44:57;;;;;;;7.15;3.78;;;22.10;65.20;;;;;;9179713;19;20018;-66
2022/07/13 02:48:02;;;;;;;7.05;4.47;;;22.10;65.10;;;;;;9180437;19;20098;-68
2022/07/13 02:51:07;;;;;;;5.75;4.00;;;22.10;65.10;;;;;;9180424;19;20368;-66
2022/07/13 02:54:12;;;;;;;6.22;3.65;;;22.10;65.10;;;;;;9179353;19;20022;-67
2022/07/13 02:57:20;;;;;;;6.13;3.90;;;22.10;65.10;;;;;;9179336;19;20038;-67
2022/07/13 03:00:31;;;;;;;7.78;3.80;;;22.10;65.10;;;;;;9179390;19;20018;-67
2022/07/13 03:03:37;;;;;;;7.78;3.60;;;22.10;65.10;;;;;;9172415;19;20021;-67
2022/07/13 03:06:42;;;;;;;5.90;4.03;;;22.10;65.20;;;;;;9181049;19;20074;-67
2022/07/13 03:09:47;;;;;;;6.43;3.90;;;22.10;65.10;;;;;;9178736;19;20011;-67
2022/07/13 03:13:03;;;;;;;4.63;3.50;;;22.10;65.10;;;;;;9180648;19;20348;-67
2022/07/13 03:16:10;;;;;;;5.57;3.40;;;22.00;65.10;;;;;;9177729;19;20020;-68
2022/07/13 03:19:15;;;;;;;4.35;3.00;;;22.00;65.10;;;;;;9179980;19;20371;-67
2022/07/13 03:22:20;;;;;;;3.92;3.53;;;22.00;65.00;;;;;;9175915;19;20029;-66
2022/07/13 03:25:27;;;;;;;3.67;3.03;;;22.00;65.20;;;;;;9178681;19;20130;-67
2022/07/13 03:28:36;;;;;;;6.30;3.45;;;22.00;65.10;;;;;;9181452;19;20030;-66
2022/07/13 03:31:42;;;;;;;3.45;2.83;;;22.00;65.20;;;;;;9179607;19;20022;-67
2022/07/13 03:34:48;;;;;;;3.58;3.00;;;22.10;65.20;;;;;;9178167;19;20021;-67
2022/07/13 03:37:57;;;;;;;3.17;2.83;;;22.00;65.10;;;;;;9177985;19;20023;-67
2022/07/13 03:41:06;;;;;;;4.28;2.90;;;22.00;65.10;;;;;;9178582;19;20021;-68
2022/07/13 03:44:14;;;;;;;7.85;2.80;;;22.00;65.00;;;;;;9175143;19;20018;-67
2022/07/13 03:47:22;;;;;;;6.40;3.15;;;22.00;65.00;;;;;;9179938;19;20026;-66
2022/07/13 03:50:30;;;;;;;3.50;2.70;;;22.00;65.10;;;;;;9178914;19;20018;-68
2022/07/13 03:53:36;;;;;;;3.47;2.60;;;22.00;65.10;;;;;;9176734;19;20022;-66
2022/07/13 03:56:41;;;;;;;8.68;2.47;;;22.00;65.10;;;;;;9177042;19;20435;-67
2022/07/13 03:59:50;;;;;;;5.32;2.92;;;21.90;65.10;;;;;;9175905;19;20530;-67
2022/07/13 04:02:57;;;;;;;2.60;2.40;;;21.90;65.10;;;;;;9177056;19;20022;-68
2022/07/13 04:06:03;;;;;;;3.85;2.55;;;21.90;65.00;;;;;;9171446;19;20028;-67
2022/07/13 04:09:09;;;;;;;4.20;2.88;;;21.90;65.00;;;;;;9176382;19;20089;-66
2022/07/13 04:12:15;;;;;;;2.80;2.45;;;21.90;65.10;;;;;;9176058;19;20029;-67
2022/07/13 04:15:23;;;;;;;3.83;2.40;;;21.90;65.00;;;;;;9176252;19;20015;-66
2022/07/13 04:18:29;;;;;;;3.75;3.00;;;21.90;65.10;;;;;;9176245;19;20380;-66
2022/07/13 04:21:34;;;;;;;3.55;2.90;;;21.90;65.00;;;;;;9176459;19;20520;-68
2022/07/13 04:24:40;;;;;;;3.88;2.95;;;21.90;64.90;;;;;;9174111;19;20044;-67
2022/07/13 04:27:45;;;;;;;3.75;2.55;;;21.90;64.90;;;;;;9177539;19;20018;-66
2022/07/13 04:30:53;;;;;;;3.65;2.28;;;21.90;64.80;;;;;;9175989;19;20479;-67
2022/07/13 04:34:04;;;;;;;3.70;2.60;;;21.90;64.90;;;;;;9175217;19;20028;-66
2022/07/13 04:37:10;;;;;;;8.10;2.20;;;21.80;64.80;;;;;;9175527;19;20529;-66
2022/07/13 04:40:18;;;;;;;4.05;2.22;;;21.90;64.90;;;;;;9176007;19;20019;-66
2022/07/13 04:43:24;;;;;;;2.55;2.03;;;21.90;64.80;;;;;;9173896;19;20120;-67
2022/07/13 04:46:32;;;;;;;3.30;2.20;;;21.90;64.80;;;;;;9175456;19;20018;-66
2022/07/13 04:49:38;;;;;;;11.63;2.00;;;21.90;64.70;;;;;;9176448;19;20033;-67
2022/07/13 04:52:43;;;;;;;2.03;1.83;;;21.90;64.70;;;;;;9174661;19;20010;-66
2022/07/13 04:55:52;;;;;;;2.13;1.67;;;21.90;64.70;;;;;;9173720;19;20660;-67
2022/07/13 04:58:57;;;;;;;4.40;1.90;;;21.90;64.50;;;;;;9173858;19;20093;-67
2022/07/13 05:02:05;;;;;;;3.08;1.83;;;21.90;65.20;;;;;;9174338;19;20014;-67
2022/07/13 05:05:11;;;;;;;6.82;2.65;;;21.90;64.50;;;;;;9170222;19;20057;-67
2022/07/13 05:08:17;;;;;;;2.35;1.40;;;21.90;64.50;;;;;;9175481;19;20437;-67
2022/07/13 05:11:22;;;;;;;1.85;1.33;;;21.90;64.30;;;;;;9173233;19;20118;-67
2022/07/13 05:14:27;;;;;;;2.03;1.20;;;21.90;64.20;;;;;;9174837;19;20014;-66
2022/07/13 05:17:37;;;;;;;2.63;2.05;;;22.00;64.10;;;;;;9174880;19;20019;-67
2022/07/13 05:20:44;;;;;;;5.20;1.58;;;21.90;63.90;;;;;;9174197;19;20026;-67
2022/07/13 05:23:50;;;;;;;5.50;1.67;;;22.00;63.80;;;;;;9171712;19;20014;-66
2022/07/13 05:26:55;;;;;;;2.38;2.00;;;22.00;63.70;;;;;;9175623;19;20344;-67
2022/07/13 05:30:04;;;;;;;6.55;2.20;;;22.00;63.50;;;;;;9174506;19;20003;-68
2022/07/13 05:33:12;;;;;;;5.93;2.30;;;22.10;63.50;;;;;;9175721;19;20373;-67
2022/07/13 05:36:17;;;;;;;4.50;2.17;;;22.10;63.50;;;;;;9173722;19;20017;-67
2022/07/13 05:39:27;;;;;;;5.47;2.33;;;22.10;63.50;;;;;;9173807;19;20025;-67
2022/07/13 05:42:32;;;;;;;5.47;2.38;;;22.10;63.40;;;;;;9174855;19;20483;-66
2022/07/13 05:45:38;;;;;;;2.85;2.20;;;22.20;63.50;;;;;;9175671;19;20464;-68
2022/07/13 05:48:48;;;;;;;8.00;2.70;;;22.20;63.40;;;;;;9182977;19;20026;-67
2022/07/13 05:51:53;;;;;;;11.40;2.42;;;22.30;63.40;;;;;;9183333;19;20023;-67
2022/07/13 05:54:58;;;;;;;4.05;2.40;;;22.30;63.30;;;;;;9182097;19;20027;-66
2022/07/13 05:58:11;;;;;;;3.88;2.38;;;22.40;63.30;;;;;;9183062;19;20057;-67
2022/07/13 06:01:16;;;;;;;6.95;2.10;;;22.40;63.30;;;;;;9185092;19;20052;-67
2022/07/13 06:04:23;;;;;;;9.07;2.35;;;22.50;63.30;;;;;;9183304;19;20019;-67
2022/07/13 06:07:29;;;;;;;6.82;2.38;;;22.50;63.20;;;;;;9187274;19;20490;-67
2022/07/13 06:10:34;;;;;;;7.53;2.83;;;22.50;63.10;;;;;;9178262;19;20014;-66
2022/07/13 06:13:40;;;;;;;8.63;2.60;;;22.60;63.20;;;;;;9178592;19;20085;-66
2022/07/13 06:16:46;;;;;;;8.57;3.17;;;22.70;63.20;;;;;;9177801;19;20029;-66
2022/07/13 06:19:53;;;;;;;10.60;3.20;;;22.70;63.20;;;;;;9180662;19;20105;-66
2022/07/13 06:23:16;;;;;;;5.38;3.30;;;22.70;63.20;;;;;;9181579;19;20019;-67
2022/07/13 06:26:21;;;;;;;7.60;3.20;;;22.80;63.20;;;;;;9175277;19;20022;-66
2022/07/13 06:29:27;;;;;;;8.65;3.65;;;22.90;63.30;;;;;;9175740;19;20025;-67
2022/07/13 06:32:32;;;;;;;6.28;4.03;;;22.90;63.30;;;;;;9179197;19;20034;-67
2022/07/13 06:35:41;;;;;;;8.45;3.63;;;22.90;63.20;;;;;;9178450;19;20014;-67
2022/07/13 06:38:46;;;;;;;6.55;4.10;;;23.00;63.30;;;;;;9180512;19;20472;-69
2022/07/13 06:41:51;;;;;;;8.48;3.60;;;23.10;63.30;;;;;;9181193;19;20018;-69
2022/07/13 06:44:56;;;;;;;10.57;4.05;;;23.10;63.30;;;;;;9180971;19;20018;-70
2022/07/13 06:48:01;;;;;;;14.35;4.80;;;23.20;63.30;;;;;;9176948;19;20026;-71
2022/07/13 06:51:09;;;;;;;10.93;4.18;;;23.30;63.40;;;;;;9183179;19;20022;-69
2022/07/13 06:54:14;;;;;;;9.80;4.60;;;23.30;63.40;;;;;;9186348;19;20018;-69
2022/07/13 06:57:19;;;;;;;6.50;3.83;;;23.40;63.40;;;;;;9186056;19;20472;-70
2022/07/13 07:00:25;;;;;;;10.95;4.50;;;23.50;63.50;;;;;;9184397;19;20030;-70
2022/07/13 07:03:31;;;;;;;7.72;4.30;;;23.60;63.40;;;;;;9184881;19;20014;-68
2022/07/13 07:06:38;;;;;;;6.95;3.90;;;23.60;63.40;;;;;;9181614;19;20472;-71
2022/07/13 07:09:44;;;;;;;8.05;4.22;;;23.70;63.40;;;;;;9184679;19;20007;-73
2022/07/13 07:12:49;;;;;;;10.02;4.10;;;23.80;63.40;;;;;;9185638;19;20043;-69
2022/07/13 07:15:54;;;;;;;9.63;4.00;;;23.90;63.50;;;;;;9185215;19;20018;-69
2022/07/13 07:19:00;;;;;;;6.20;3.80;;;24.00;63.50;;;;;;9185096;19;20013;-70
2022/07/13 07:22:28;;;;;;;11.43;4.05;;;24.10;63.40;;;;;;9182872;19;20019;-69
2022/07/13 07:25:33;;;;;;;8.82;4.75;;;24.20;63.40;;;;;;9182610;19;20010;-69
2022/07/13 07:28:39;;;;;;;6.07;3.05;;;24.30;63.40;;;;;;9186274;19;20022;-69
2022/07/13 07:31:44;;;;;;;14.52;4.65;;;24.40;63.40;;;;;;9186350;19;20404;-67
2022/07/13 07:34:49;;;;;;;9.38;3.67;;;24.60;63.30;;;;;;9182728;19;20529;-68
2022/07/13 07:37:58;;;;;;;9.07;4.28;;;24.70;63.20;;;;;;9181768;19;20015;-69
2022/07/13 07:41:06;;;;;;;8.18;3.90;;;24.80;63.10;;;;;;9182706;19;20014;-70
2022/07/13 07:44:11;;;;;;;9.70;3.78;;;25.00;63.10;;;;;;9181703;19;20022;-70
2022/07/13 07:47:16;;;;;;;13.85;6.05;;;25.20;62.90;;;;;;9183126;19;20089;-70
2022/07/13 07:50:22;;;;;;;9.35;3.75;;;25.40;62.80;;;;;;9182917;19;20026;-72
2022/07/13 07:53:30;;;;;;;8.45;4.45;;;25.60;62.70;;;;;;9178505;19;20015;-70
2022/07/13 07:56:35;;;;;;;17.80;3.70;;;25.80;62.40;;;;;;9177416;19;20014;-73
2022/07/13 07:59:41;;;;;;;16.50;3.85;;;26.00;62.40;;;;;;9177825;19;20022;-71
2022/07/13 08:02:48;;;;;;;11.65;4.03;;;26.30;62.20;;;;;;9176865;19;20014;-72
2022/07/13 08:05:57;;;;;;;7.28;3.25;;;26.50;61.90;;;;;;9172048;19;20048;-72
2022/07/13 08:09:05;;;;;;;9.25;3.58;;;26.80;61.80;;;;;;9176328;19;20022;-72
2022/07/13 08:12:10;;;;;;;10.05;3.42;;;27.10;61.50;;;;;;9177881;19;20356;-70
2022/07/13 08:15:15;;;;;;;9.75;3.25;;;27.40;61.20;;;;;;9181941;19;20137;-71
2022/07/13 08:18:20;;;;;;;11.18;2.90;;;27.60;60.90;;;;;;9183123;19;20074;-70
2022/07/13 08:21:46;;;;;;;9.35;2.75;;;27.90;60.60;;;;;;9182204;19;20023;-70
2022/07/13 08:24:54;;;;;;;5.63;2.42;;;28.10;60.50;;;;;;9181600;19;20131;-72
2022/07/13 08:28:01;;;;;;;6.75;2.83;;;28.40;60.00;;;;;;9182788;19;20010;-73
2022/07/13 08:31:07;;;;;;;5.47;3.15;;;28.70;59.90;;;;;;9181352;19;20019;-71
2022/07/13 08:40:50;;;;;;;6.15;3.78;;;29.30;59.20;;;;;;9180567;19;20018;-70
2022/07/13 08:43:55;;;;;;;7.53;3.25;;;29.40;58.80;;;;;;9181583;19;20026;-71
2022/07/13 08:47:01;;;;;;;4.82;3.22;;;29.60;58.80;;;;;;9180294;19;20637;-73
2022/07/13 08:50:09;;;;;;;4.57;3.30;;;29.80;58.60;;;;;;9180571;19;20026;-72
2022/07/13 08:53:15;;;;;;;9.00;3.30;;;29.90;58.40;;;;;;9180487;19;20018;-73
2022/07/13 08:56:24;;;;;;;10.13;3.65;;;30.10;58.20;;;;;;9180133;19;20014;-73
2022/07/13 08:59:29;;;;;;;5.10;3.20;;;30.30;58.10;;;;;;9180751;19;20353;-74
2022/07/13 09:02:35;;;;;;;8.00;3.20;;;30.50;57.90;;;;;;9181480;19;20026;-71
2022/07/13 09:05:42;;;;;;;5.90;3.88;;;30.70;57.80;;;;;;9175230;19;20482;-72
2022/07/13 09:08:47;;;;;;;6.30;3.35;;;30.80;57.50;;;;;;9180506;19;20021;-73
2022/07/13 09:11:55;;;;;;;9.98;3.45;;;31.00;57.30;;;;;;9180035;19;20018;-71
2022/07/13 09:15:01;;;;;;;8.30;3.55;;;31.20;56.90;;;;;;9179841;19;20025;-73
2022/07/13 09:18:08;;;;;;;11.90;3.53;;;31.30;56.80;;;;;;9178967;19;20011;-73
2022/07/13 09:21:14;;;;;;;6.32;2.85;;;31.50;56.70;;;;;;9180172;19;20360;-71
2022/07/13 09:24:19;;;;;;;8.13;3.22;;;31.60;56.40;;;;;;9180773;19;20006;-73
2022/07/13 09:27:26;;;;;;;7.70;3.92;;;31.80;56.30;;;;;;9178004;19;20030;-71
2022/07/13 09:30:32;;;;;;;7.15;3.20;;;31.90;56.00;;;;;;9179576;19;20017;-71
2022/07/13 09:33:40;;;;;;;7.05;3.00;;;32.10;56.00;;;;;;9179883;19;20007;-72
2022/07/13 09:36:45;;;;;;;8.00;3.28;;;32.20;55.70;;;;;;9180904;19;20482;-71
2022/07/13 09:40:06;;;;;;;7.95;3.08;;;32.30;55.50;;;;;;9179496;19;20034;-70
2022/07/13 09:46:34;;;;;;;5.20;2.83;;;32.50;55.00;;;;;;9178510;19;20014;-71
2022/07/13 09:49:41;;;;;;;7.93;2.95;;;32.70;55.00;;;;;;9178286;19;20105;-73
2022/07/13 09:52:47;;;;;;;7.35;2.95;;;32.80;54.80;;;;;;9178796;19;20363;-71
2022/07/13 09:55:55;;;;;;;8.00;2.90;;;32.80;54.60;;;;;;9178537;19;20015;-72
2022/07/13 09:59:07;;;;;;;11.30;2.83;;;33.00;54.50;;;;;;9179910;19;20053;-74
2022/07/13 10:02:14;;;;;;;8.05;3.00;;;33.00;54.10;;;;;;9179383;19;20026;-70
2022/07/13 10:05:26;;;;;;;6.50;2.33;;;33.20;54.10;;;;;;9175296;19;20030;-74
2022/07/13 10:08:32;;;;;;;5.28;2.72;;;33.20;53.70;;;;;;9177064;19;20011;-73
2022/07/13 10:11:38;;;;;;;6.75;2.85;;;33.30;53.60;;;;;;9179576;19;20476;-73
2022/07/13 10:14:47;;;;;;;4.93;2.45;;;33.40;53.50;;;;;;9177934;19;20014;-73
2022/07/13 10:18:03;;;;;;;11.38;2.47;;;33.50;53.30;;;;;;9177419;19;20112;-75
2022/07/13 10:21:19;;;;;;;4.60;2.58;;;33.60;53.20;;;;;;9178556;19;20074;-71
2022/07/13 10:24:27;;;;;;;4.45;2.60;;;33.70;52.80;;;;;;9179597;19;20007;-73
2022/07/13 10:27:34;;;;;;;6.15;2.13;;;33.70;52.80;;;;;;9176456;19;20025;-76
2022/07/13 10:30:44;;;;;;;4.40;2.28;;;33.80;52.60;;;;;;9179327;19;20022;-74
2022/07/13 10:33:49;;;;;;;13.15;2.63;;;33.80;52.30;;;;;;9184358;19;20045;-74
2022/07/13 10:36:57;;;;;;;4.90;2.70;;;33.80;52.20;;;;;;9186282;19;20022;-73
2022/07/13 10:40:14;;;;;;;2.90;1.90;;;33.80;51.90;;;;;;9186617;19;20015;-73
2022/07/13 10:43:25;;;;;;;4.93;2.38;;;33.80;51.30;;;;;;9186116;19;20644;-74
2022/07/13 10:46:51;;;;;;;4.57;2.08;;;33.80;51.20;;;;;;9184629;19;20014;-73
2022/07/13 10:49:56;;;;;;;5.40;2.85;;;33.80;51.00;;;;;;9187051;19;20011;-72
2022/07/13 10:53:01;;;;;;;4.15;2.30;;;33.80;51.30;;;;;;9185294;19;20468;-71
2022/07/13 10:56:24;;;;;;;6.60;2.40;;;33.80;51.10;;;;;;9185837;19;20021;-72
2022/07/13 10:59:47;;;;;;;3.28;2.22;;;33.80;50.90;;;;;;9187049;19;20015;-72
2022/07/13 11:03:01;;;;;;;4.33;2.40;;;33.80;50.20;;;;;;9186023;19;20018;-70
2022/07/13 11:06:12;;;;;;;4.18;2.30;;;33.90;50.40;;;;;;9181143;19;20022;-70
2022/07/13 11:09:20;;;;;;;4.57;2.47;;;33.90;50.30;;;;;;9185937;19;20022;-70
2022/07/13 11:12:25;;;;;;;2.83;2.30;;;34.00;50.30;;;;;;9183602;19;20029;-71
2022/07/13 11:15:46;;;;;;;5.32;2.58;;;34.00;50.20;;;;;;9185923;19;20018;-74
2022/07/13 11:18:55;;;;;;;8.02;2.35;;;34.10;49.60;;;;;;9185956;19;20014;-74
2022/07/13 11:22:10;;;;;;;3.17;1.85;;;34.20;49.50;;;;;;9185023;19;20361;-72
2022/07/13 11:25:23;;;;;;;4.72;1.90;;;34.20;49.00;;;;;;9183416;19;20015;-70
2022/07/13 11:28:34;;;;;;;3.10;1.85;;;34.20;48.90;;;;;;9182360;19;20102;-70
2022/07/13 11:31:39;;;;;;;3.00;1.90;;;34.10;48.70;;;;;;9179476;19;20014;-72
2022/07/13 11:34:48;;;;;;;12.43;1.98;;;34.00;48.70;;;;;;9186568;19;20013;-70
2022/07/13 11:37:53;;;;;;;3.42;1.70;;;33.90;48.20;;;;;;9184236;19;20354;-72
2022/07/13 11:41:00;;;;;;;8.90;1.80;;;33.80;48.30;;;;;;9182190;19;20026;-70
2022/07/13 11:44:05;;;;;;;3.00;1.75;;;33.70;48.20;;;;;;9182637;19;20021;-68
2022/07/13 11:47:11;;;;;;;5.57;1.48;;;33.50;48.20;;;;;;9183975;19;20014;-65
2022/07/13 11:50:19;;;;;;;4.20;1.58;;;33.50;48.20;;;;;;9185463;19;20014;-67
2022/07/13 11:53:26;;;;;;;3.63;1.50;;;33.40;48.20;;;;;;9183909;19;20018;-73
2022/07/13 11:56:32;;;;;;;5.07;1.85;;;33.30;48.20;;;;;;9183627;19;20014;-70
2022/07/13 11:59:38;;;;;;;5.93;1.52;;;33.30;48.30;;;;;;9184460;19;20023;-71
2022/07/13 12:02:43;;;;;;;4.88;1.65;;;33.20;48.20;;;;;;9184361;19;20010;-71
2022/07/13 12:05:51;;;;;;;4.32;1.38;;;33.10;48.30;;;;;;9179569;19;20051;-67
2022/07/13 12:08:56;;;;;;;8.40;1.38;;;33.10;48.30;;;;;;9182081;19;20015;-71
2022/07/13 12:12:01;;;;;;;4.75;1.35;;;33.00;48.40;;;;;;9183081;19;20019;-70
2022/07/13 12:15:08;;;;;;;2.40;1.35;;;32.90;48.20;;;;;;9183051;19;20399;-71
2022/07/13 12:18:14;;;;;;;2.58;1.02;;;32.90;48.30;;;;;;9182807;19;20007;-71
2022/07/13 12:21:21;;;;;;;11.10;1.58;;;32.80;48.20;;;;;;9184393;19;20014;-71
2022/07/13 12:24:26;;;;;;;2.10;1.33;;;32.80;48.00;;;;;;9183532;19;20019;-70
2022/07/13 12:27:32;;;;;;;2.53;1.27;;;32.70;48.00;;;;;;9181053;19;20022;-67
2022/07/13 12:30:39;;;;;;;2.20;1.05;;;32.70;48.00;;;;;;9182595;19;20472;-73
2022/07/13 12:33:46;;;;;;;1.80;1.20;;;32.70;47.80;;;;;;9183770;19;20019;-70
2022/07/13 12:36:54;;;;;;;3.28;1.10;;;32.70;47.70;;;;;;9184200;19;20014;-71
2022/07/13 12:39:59;;;;;;;3.13;1.60;;;32.60;47.60;;;;;;9181742;19;20025;-70
2022/07/13 12:43:05;;;;;;;3.08;1.17;;;32.50;47.50;;;;;;9183115;19;20018;-70
2022/07/13 12:46:10;;;;;;;2.78;1.50;;;32.40;48.20;;;;;;9181775;19;20010;-71
2022/07/13 12:49:15;;;;;;;2.72;1.20;;;32.40;47.50;;;;;;9180959;19;20014;-73
2022/07/13 12:52:23;;;;;;;3.75;1.33;;;32.30;47.30;;;;;;9180250;19;20025;-70
2022/07/13 12:55:28;;;;;;;6.85;1.30;;;32.30;47.10;;;;;;9179980;19;20037;-69
2022/07/13 12:58:43;;;;;;;1.85;1.10;;;32.30;47.20;;;;;;9181655;19;20523;-69
2022/07/13 13:01:50;;;;;;;4.32;0.90;;;32.30;46.70;;;;;;9183251;19;20006;-70
2022/07/13 13:04:55;;;;;;;3.97;1.00;;;32.30;46.80;;;;;;9178359;19;20490;-68
2022/07/13 13:08:02;;;;;;;5.30;1.17;;;32.40;46.70;;;;;;9180135;19;20025;-70
2022/07/13 13:11:08;;;;;;;4.95;1.30;;;32.40;46.40;;;;;;9183017;19;20032;-70
2022/07/13 13:14:13;;;;;;;1.92;1.13;;;32.40;46.50;;;;;;9180677;19;20060;-71
2022/07/13 13:17:18;;;;;;;1.98;1.08;;;32.40;46.40;;;;;;9181009;19;20015;-70
2022/07/13 13:20:24;;;;;;;2.85;1.10;;;32.50;46.40;;;;;;9180676;19;20355;-72
2022/07/13 13:23:31;;;;;;;3.15;1.15;;;32.40;46.30;;;;;;9178308;19;20026;-72
2022/07/13 13:26:39;;;;;;;1.25;0.85;;;32.50;46.10;;;;;;9179825;19;20103;-73
2022/07/13 13:33:24;;;;;;;2.53;1.38;;;32.50;46.00;;;;;;9179104;19;20340;-70
2022/07/13 13:36:29;;;;;;;3.45;1.40;;;32.50;45.80;;;;;;9180310;19;20056;-70
2022/07/13 13:39:36;;;;;;;2.38;0.98;;;32.50;45.80;;;;;;9180339;19;20025;-70
2022/07/13 13:42:41;;;;;;;1.63;1.00;;;32.50;45.70;;;;;;9181101;19;20026;-72
2022/07/13 13:45:57;;;;;;;1.58;0.85;;;32.50;45.80;;;;;;9180957;19;20026;-71
2022/07/13 13:49:03;;;;;;;3.80;0.88;;;32.50;45.70;;;;;;9178880;19;20029;-71
2022/07/13 13:52:08;;;;;;;2.35;1.05;;;32.40;45.30;;;;;;9181472;19;20732;-68
2022/07/13 13:55:15;;;;;;;6.68;1.30;;;32.40;45.20;;;;;;9180939;19;20042;-68
2022/07/13 13:58:21;;;;;;;1.92;1.40;;;32.40;45.10;;;;;;9179447;19;20020;-69
2022/07/13 14:01:26;;;;;;;3.25;1.48;;;32.40;45.30;;;;;;9179446;19;20022;-70
2022/07/13 14:04:33;;;;;;;6.32;1.50;;;32.30;45.30;;;;;;9175463;19;20022;-72
2022/07/13 14:07:38;;;;;;;5.43;1.40;;;32.30;45.50;;;;;;9187733;19;20482;-70
2022/07/13 14:10:46;;;;;;;3.60;1.10;;;32.20;45.60;;;;;;9187032;19;20340;-70
2022/07/13 14:14:11;;;;;;;3.63;1.23;;;32.20;45.60;;;;;;9186228;19;20018;-72
2022/07/13 14:17:16;;;;;;;2.13;1.52;;;32.10;45.80;;;;;;9184042;19;20760;-73
2022/07/13 14:20:23;;;;;;;3.17;1.60;;;32.00;45.80;;;;;;9180048;19;20044;-70
2022/07/13 14:23:29;;;;;;;3.80;1.20;;;31.90;45.90;;;;;;9184499;19;20118;-71
2022/07/13 14:26:36;;;;;;;2.20;1.20;;;31.90;46.00;;;;;;9182450;19;20010;-70
2022/07/13 14:29:41;;;;;;;9.05;1.95;;;31.80;46.00;;;;;;9182147;19;20021;-69
2022/07/13 14:32:47;;;;;;;4.82;1.40;;;31.70;46.10;;;;;;9184189;19;20397;-70
2022/07/13 14:36:00;;;;;;;8.40;1.27;;;31.70;46.20;;;;;;9185485;19;20360;-70
2022/07/13 14:39:06;;;;;;;2.55;1.45;;;31.60;46.30;;;;;;9186023;19;20085;-72
2022/07/13 14:42:14;;;;;;;3.28;1.80;;;31.50;46.90;;;;;;9182025;19;20018;-73
2022/07/13 14:45:19;;;;;;;2.70;1.23;;;31.50;46.30;;;;;;9182140;19;20026;-70
2022/07/13 14:48:24;;;;;;;1.50;1.25;;;31.40;46.40;;;;;;9181910;19;20011;-71
2022/07/13 14:51:49;;;;;;;4.60;1.50;;;31.40;46.50;;;;;;9183313;19;20010;-72
2022/07/13 14:55:01;;;;;;;1.67;1.42;;;31.40;46.60;;;;;;9183956;19;20010;-70
2022/07/13 14:58:09;;;;;;;1.45;1.17;;;31.30;46.40;;;;;;9179193;19;20026;-71
2022/07/13 15:01:15;;;;;;;4.18;1.00;;;31.30;46.40;;;;;;9180377;19;20017;-71
2022/07/13 15:04:23;;;;;;;6.15;1.45;;;31.30;46.40;;;;;;9174884;19;20985;-72
2022/07/13 15:07:29;;;;;;;5.53;1.35;;;31.30;46.40;;;;;;9181185;19;20018;-69
2022/07/13 15:10:35;;;;;;;3.85;1.38;;;31.30;46.60;;;;;;9178151;19;20018;-72
2022/07/13 15:13:43;;;;;;;1.63;1.20;;;31.30;46.60;;;;;;9180961;19;20011;-70
2022/07/13 15:16:48;;;;;;;1.83;1.27;;;31.30;46.60;;;;;;9181702;19;20494;-72
2022/07/13 15:20:12;;;;;;;1.93;1.50;;;31.30;46.60;;;;;;9180353;19;20022;-71
2022/07/13 15:23:17;;;;;;;1.45;1.27;;;31.30;46.70;;;;;;9181025;19;20022;-70
2022/07/13 15:26:22;;;;;;;4.57;1.30;;;31.30;46.80;;;;;;9183162;19;20011;-70
2022/07/13 15:29:30;;;;;;;4.00;1.35;;;31.30;46.80;;;;;;9178210;19;20587;-72
2022/07/13 15:32:35;;;;;;;6.53;1.50;;;31.30;46.80;;;;;;9181177;19;20014;-71
2022/07/13 15:35:41;;;;;;;3.63;1.40;;;31.30;46.90;;;;;;9180674;19;20352;-70
2022/07/13 15:38:46;;;;;;;5.30;1.50;;;31.20;46.80;;;;;;9183421;19;20014;-72
2022/07/13 15:41:51;;;;;;;5.75;1.75;;;31.20;46.80;;;;;;9183851;19;20018;-71
2022/07/13 15:44:59;;;;;;;3.45;1.45;;;31.10;46.80;;;;;;9181775;19;20026;-69
2022/07/13 15:48:04;;;;;;;4.25;2.33;;;31.10;46.80;;;;;;9185187;19;20030;-69
2022/07/13 15:51:09;;;;;;;3.40;1.60;;;31.10;46.90;;;;;;9183425;19;20487;-73
2022/07/13 15:54:14;;;;;;;3.08;1.40;;;31.00;46.90;;;;;;9179808;19;20025;-72
2022/07/13 15:57:19;;;;;;;2.17;1.38;;;31.00;47.00;;;;;;9183443;19;20014;-71
2022/07/13 16:00:26;;;;;;;3.92;1.48;;;30.90;47.00;;;;;;9185351;19;20014;-71
2022/07/13 16:03:32;;;;;;;5.40;1.80;;;30.90;47.10;;;;;;9181691;19;20018;-71
2022/07/13 16:06:37;;;;;;;7.07;1.73;;;30.80;47.20;;;;;;9184468;19;20055;-70
2022/07/13 16:09:42;;;;;;;5.80;1.48;;;30.80;47.30;;;;;;9181168;19;20022;-73
2022/07/13 16:12:47;;;;;;;4.80;1.80;;;30.70;47.50;;;;;;9184208;19;20496;-70
2022/07/13 16:15:54;;;;;;;3.30;1.67;;;30.60;47.60;;;;;;9185058;19;20018;-70
2022/07/13 16:19:00;;;;;;;4.43;1.52;;;30.50;47.60;;;;;;9183941;19;20018;-72
2022/07/13 16:22:05;;;;;;;5.55;1.95;;;30.50;47.70;;;;;;9182825;19;20018;-70
2022/07/13 16:25:11;;;;;;;4.80;1.75;;;30.30;47.70;;;;;;9183113;19;20376;-70